Terminal Aerodrome Forecast
Issued by NWS

Home | Current Version | Previous Version | Text Only | Print | Product List | Glossary Off
Versions: 1 2 3 4 5 6 7 8 9 10 11 12 13 14 15 16

000
FTUS43 KMPX 112331
TAFRNH
TAF
KRNH 112331Z 1200/1224 33016G25KT P6SM OVC028
     FM120200 32015G26KT P6SM SCT030
     FM120600 31009KT P6SM SKC
     FM121600 30005KT P6SM BKN100
     FM121800 25005KT P6SM BKN050 OVC090=

USA.gov is the U.S. government's official web portal to all federal, state and local government web resources and services.